x

South Bass Island, Oh (sbio1) Weather Station

10:00pm - Sat 28th Mar 2015 All times are CDT. -5 hours from GMT.

  • Wind
    11mph, 13mph gusts
  • Air Temp 29°f
  • Sea Pressure 1027.3mb
  • South Bass Island, Oh
  • South Bass Island, Oh

More Historic Weather Station data

Upgrade to MSW Pro to gain access to the past 30 days of data for over 8000 Wavebouys and Weather Stations around the globe.

Join Pro

Comparision Forecast

View Surf forecast
   
Sat 03/28 10:00pm 11 13 mph 1027.3mb 29f
9:00pm 5 7 mph 1027mb 29f
8:00pm 5 6 mph 1027mb 28f
7:00pm 9
mph
1026.7mb 28f
6:00pm 5 6 mph 1026.7mb 31f
5:00pm 5 6 mph 1026.4mb 29f
4:00pm 6 7 mph 1026.5mb 26f
3:00pm 6 7 mph 1026.7mb 25f
2:00pm 7 9 mph 1027.1mb 24f
1:00pm 10 13 mph 1027.2mb 26f
12:00pm 8
mph
1027.2mb 25f
11:00am 10 13 mph 1027mb 22f
10:00am 10 11 mph 1026.7mb 22f
9:00am 10 13 mph 1026.3mb 21f
8:00am 15 18 mph 1025.4mb 20f
7:00am 17
mph
1024.2mb 19f
6:00am 14 15 mph 1023.5mb 18f
5:00am 15 16 mph 1022.6mb 19f
4:00am 16 17 mph 1022.3mb 18f
3:00am 11 14 mph 1022.2mb 18f
2:00am 10 13 mph 1022.3mb 17f
1:00am 8 11 mph 1022mb 18f
12:00am 10 15 mph 1022mb 19f
Fri 03/27 11:00pm 8 11 mph 1021.9mb 20f
10:00pm 5 7 mph 1021.3mb 20f
9:00pm 7 13 mph 1020.7mb 22f
8:00pm 7 10 mph 1020.1mb 22f
7:00pm 8 10 mph 1019.2mb 22f
6:00pm 11 14 mph 1018.8mb 23f
5:00pm 9 14 mph 1018.3mb 23f
4:00pm 10 13 mph 1017.8mb 24f
3:00pm 16 18 mph 1017.6mb 24f
2:00pm 15 17 mph 1017.5mb 25f
1:00pm 14 15 mph 1017.5mb 25f
12:00pm 17 18 mph 1017.1mb 25f
11:00am 20 21 mph 1016.9mb 25f
10:00am 17 20 mph 1016.9mb 25f
9:00am 20 21 mph 1016.6mb 24f
8:00am 25 29 mph 1016.1mb 25f
7:00am 30 32 mph 1015.2mb 25f
6:00am 26 29 mph 1014.6mb 28f
5:00am 23 24 mph 1014.2mb 31f
4:00am 17 18 mph 1014.3mb 31f
3:00am 16 18 mph 1014.6mb 32f
2:00am 14 16 mph 1014.2mb 33f
1:00am 16 17 mph 1013.8mb 33f
12:00am 16 18 mph 1014.2mb 33f
Thu 03/26 11:00pm 17 20 mph 1014mb 34f
10:00pm 17 18 mph 1013.8mb 35f
9:00pm 20 22 mph 1013.4mb 36f
8:00pm 17 18 mph 1013.4mb 35f
7:00pm 13
mph
1012.6mb 36f
6:00pm 10
mph
1012mb 37f
5:00pm 10
mph
1012mb 37f
4:00pm 11 13 mph 1011.6mb 36f
3:00pm 6 8 mph 1011.2mb 35f
2:00pm 5 6 mph 1011.4mb 34f
1:00pm 3
mph
1011.5mb 34f
12:00pm 5 6 mph 1012.2mb 33f
11:00am 9 10 mph 1012.5mb 33f
10:00am 3 5 mph 1012.5mb 33f
9:00am 6
mph
1012.8mb 32f
8:00am 6
mph
1012.6mb 32f
7:00am 7 8 mph 1013.5mb 34f
6:00am 3 5 mph 1013.6mb 37f
5:00am 6 7 mph 1012.9mb 38f
4:00am 5 7 mph 1013.2mb 40f
3:00am 8 10 mph 1013.9mb 40f
2:00am 9
mph
1015.7mb 38f
1:00am 10
mph
1016.1mb 37f
12:00am 13
mph
1015.9mb 41f
Wed 03/25 11:00pm 14
mph
1015.9mb 40f
10:00pm 16
mph
1016.1mb 40f
9:00pm 16 17 mph 1016.2mb 40f
8:00pm 16
mph
1016.5mb 40f
7:00pm 20
mph
1016.2mb 41f
6:00pm 26 28 mph 1016.1mb 43f
5:00pm 23 24 mph 1015.3mb 42f
4:00pm 28 29 mph 1015.1mb 44f
3:00pm 26 28 mph 1014.8mb 42f
2:00pm 31 32 mph 1013.7mb 43f
1:00pm 30 32 mph 1013mb 44f
12:00pm 28 29 mph 1012.2mb 44f
11:00am 29 30 mph 1011.5mb 46f
10:00am 22 23 mph 1011.2mb 45f
9:00am 18 25 mph 1011.4mb 43f
8:00am 24 26 mph 1012mb 39f
7:00am 16 18 mph 1013.9mb 36f
6:00am 17 18 mph 1015mb 35f
5:00am 17 20 mph 1016.4mb 35f